Time;durP1;ratioP1;P1;durP2;ratioP2;P2;SDS_P1;SDS_P2;PMS_P1;PMS_P2;Temp;Humidity;BMP_temperature;BMP_pressure;BME280_temperature;BME280_humidity;BME280_pressure;Samples;Min_cycle;Max_cycle;Signal;HPM_P1;HPM_P2
2023/08/30 00:02:21;;;;;;;25.97;19.30;;;12.80;99.90;;;;;;5048690;28;21172;-67
2023/08/30 00:04:49;;;;;;;29.00;17.20;;;12.90;99.90;;;;;;5052270;28;20498;-67
2023/08/30 00:07:17;;;;;;;22.63;15.23;;;12.90;99.90;;;;;;5052229;28;20570;-67
2023/08/30 00:09:45;;;;;;;22.53;14.57;;;12.90;99.90;;;;;;5052269;28;20527;-67
2023/08/30 00:12:12;;;;;;;24.07;16.80;;;12.90;99.90;;;;;;5052209;28;20826;-67
2023/08/30 00:14:42;;;;;;;30.10;16.63;;;12.90;99.90;;;;;;5051830;28;20509;-66
2023/08/30 00:17:10;;;;;;;34.60;19.47;;;13.00;99.90;;;;;;5044344;28;20494;-67
2023/08/30 00:19:38;;;;;;;35.20;16.90;;;13.00;99.90;;;;;;5052234;28;20518;-66
2023/08/30 00:22:07;;;;;;;37.47;18.50;;;13.00;99.90;;;;;;5053414;28;20530;-66
2023/08/30 00:24:35;;;;;;;27.90;17.60;;;12.90;99.90;;;;;;5052582;28;20849;-66
2023/08/30 00:27:04;;;;;;;32.10;19.20;;;12.90;99.90;;;;;;5053375;28;20468;-67
2023/08/30 00:29:31;;;;;;;30.90;18.70;;;13.00;99.90;;;;;;5052875;28;20489;-67
2023/08/30 00:32:01;;;;;;;22.10;16.17;;;13.00;99.90;;;;;;5052399;28;20439;-64
2023/08/30 00:34:29;;;;;;;23.47;16.40;;;13.20;99.90;;;;;;5052117;28;20458;-66
2023/08/30 00:36:57;;;;;;;21.63;16.80;;;13.20;99.90;;;;;;5052574;28;20491;-66
2023/08/30 00:39:24;;;;;;;21.93;16.13;;;13.30;99.90;;;;;;5053315;28;20490;-66
2023/08/30 00:41:52;;;;;;;20.73;15.30;;;13.40;99.90;;;;;;5052759;28;20447;-66
2023/08/30 00:44:20;;;;;;;22.97;14.67;;;13.30;99.90;;;;;;5052641;28;20448;-66
2023/08/30 00:46:49;;;;;;;20.50;13.80;;;13.20;99.90;;;;;;5052560;28;20558;-66
2023/08/30 00:49:18;;;;;;;21.10;14.70;;;13.20;99.90;;;;;;5052845;28;20492;-67
2023/08/30 00:51:46;;;;;;;20.10;14.30;;;13.20;99.90;;;;;;5052707;28;20472;-67
2023/08/30 00:54:15;;;;;;;20.37;14.53;;;13.20;99.90;;;;;;5052454;28;20471;-66
2023/08/30 00:56:44;;;;;;;20.13;14.03;;;13.30;99.90;;;;;;5052916;28;20733;-66
2023/08/30 00:59:12;;;;;;;21.80;15.07;;;13.30;99.90;;;;;;5052224;28;20989;-67
2023/08/30 01:01:41;;;;;;;21.60;14.60;;;13.40;99.90;;;;;;5052731;28;20458;-66
2023/08/30 01:04:09;;;;;;;21.07;14.47;;;13.30;99.90;;;;;;5052181;28;20451;-67
2023/08/30 01:06:39;;;;;;;21.70;15.03;;;13.40;99.90;;;;;;5052578;28;20569;-67
2023/08/30 01:09:08;;;;;;;18.20;13.67;;;13.30;99.90;;;;;;5052183;28;20863;-67
2023/08/30 01:11:44;;;;;;;19.67;14.50;;;13.30;99.90;;;;;;5052610;28;20451;-67
2023/08/30 01:14:17;;;;;;;21.40;13.57;;;13.30;99.90;;;;;;5051467;28;20442;-66
2023/08/30 01:16:45;;;;;;;19.43;14.63;;;13.20;99.90;;;;;;5052494;28;20463;-66
2023/08/30 01:19:28;;;;;;;20.20;14.13;;;13.10;99.90;;;;;;5051947;28;20537;-66
2023/08/30 01:22:04;;;;;;;20.80;15.17;;;12.90;99.90;;;;;;5052133;28;20934;-67
2023/08/30 01:24:41;;;;;;;25.60;15.20;;;12.90;99.90;;;;;;5051970;28;20532;-66
2023/08/30 01:27:12;;;;;;;23.37;14.90;;;12.90;99.90;;;;;;5051953;28;20554;-66
2023/08/30 01:29:44;;;;;;;23.50;15.60;;;12.90;99.90;;;;;;5052278;28;20444;-66
2023/08/30 01:32:13;;;;;;;21.40;14.33;;;12.80;99.90;;;;;;5051971;28;20452;-67
2023/08/30 01:34:45;;;;;;;21.20;14.40;;;12.70;99.90;;;;;;5051982;28;20455;-66
2023/08/30 01:37:14;;;;;;;19.70;13.60;;;12.70;99.90;;;;;;5051802;28;20905;-66
2023/08/30 01:39:42;;;;;;;22.93;15.20;;;12.60;99.90;;;;;;5052061;28;20486;-67
2023/08/30 01:42:14;;;;;;;23.40;15.20;;;12.60;99.90;;;;;;5051706;28;20479;-66
2023/08/30 01:44:44;;;;;;;21.00;14.47;;;12.50;99.90;;;;;;5045456;28;20910;-67
2023/08/30 01:47:13;;;;;;;22.07;15.60;;;12.50;99.90;;;;;;5051320;28;20455;-67
2023/08/30 01:49:41;;;;;;;26.87;15.30;;;12.40;99.90;;;;;;5051614;28;20439;-67
2023/08/30 01:52:11;;;;;;;22.90;16.03;;;12.40;99.90;;;;;;5051331;28;20554;-67
2023/08/30 01:54:41;;;;;;;22.40;15.70;;;12.30;99.90;;;;;;5051369;28;20514;-66
2023/08/30 01:57:09;;;;;;;22.07;15.53;;;12.20;99.90;;;;;;5051605;28;20460;-67
2023/08/30 01:59:39;;;;;;;22.80;15.60;;;12.20;99.90;;;;;;5050867;28;20498;-67
2023/08/30 02:02:07;;;;;;;23.03;16.03;;;12.20;99.90;;;;;;5050417;28;20891;-66
2023/08/30 02:04:35;;;;;;;22.43;16.60;;;12.10;99.90;;;;;;5050384;28;20444;-66
2023/08/30 02:07:04;;;;;;;22.30;16.87;;;12.00;99.90;;;;;;5051419;28;20534;-66
2023/08/30 02:09:40;;;;;;;25.77;15.37;;;12.00;99.90;;;;;;5050992;28;20951;-67
2023/08/30 02:12:14;;;;;;;27.87;16.70;;;12.10;99.90;;;;;;5051441;28;20524;-66
2023/08/30 02:14:46;;;;;;;25.30;17.30;;;12.10;99.90;;;;;;5050690;28;20447;-67
2023/08/30 02:17:15;;;;;;;28.10;18.80;;;12.30;99.90;;;;;;5048774;28;20542;-66
2023/08/30 02:19:44;;;;;;;34.87;20.47;;;12.20;99.90;;;;;;5050733;28;20473;-66
2023/08/30 02:22:12;;;;;;;28.13;17.47;;;12.30;99.90;;;;;;5047674;28;20586;-66
2023/08/30 02:24:40;;;;;;;26.50;18.53;;;12.30;99.90;;;;;;5049774;28;20930;-66
2023/08/30 02:27:08;;;;;;;25.80;17.40;;;12.30;99.90;;;;;;5030534;28;20529;-67
2023/08/30 02:29:36;;;;;;;24.67;16.97;;;12.20;99.90;;;;;;5030851;28;20441;-66
2023/08/30 02:32:06;;;;;;;26.20;17.20;;;12.20;99.90;;;;;;5030675;28;20511;-67
2023/08/30 02:34:35;;;;;;;21.80;15.90;;;12.20;99.90;;;;;;5030892;28;20456;-66
2023/08/30 02:37:03;;;;;;;23.97;16.20;;;12.20;99.90;;;;;;5030538;28;20472;-66
2023/08/30 02:39:31;;;;;;;23.40;15.43;;;12.40;99.90;;;;;;5030711;28;20485;-65
2023/08/30 02:41:59;;;;;;;20.83;15.93;;;12.40;99.90;;;;;;5030711;28;20487;-66
2023/08/30 02:44:27;;;;;;;18.67;13.23;;;12.40;99.90;;;;;;5030823;28;20445;-66
2023/08/30 02:46:56;;;;;;;17.70;13.30;;;12.40;99.90;;;;;;5030661;28;20475;-65
2023/08/30 02:49:25;;;;;;;20.27;14.40;;;12.30;99.90;;;;;;5030519;28;20452;-65
2023/08/30 02:51:53;;;;;;;20.87;15.63;;;12.20;99.90;;;;;;5030637;28;21163;-65
2023/08/30 02:54:22;;;;;;;21.80;15.83;;;12.20;99.90;;;;;;5030009;28;20510;-65
2023/08/30 02:56:50;;;;;;;21.07;14.43;;;12.20;99.90;;;;;;5030403;28;20476;-65
2023/08/30 02:59:18;;;;;;;22.60;15.57;;;12.10;99.90;;;;;;5030278;28;20882;-65
2023/08/30 03:01:46;;;;;;;20.80;14.80;;;12.20;99.90;;;;;;5030456;28;20459;-65
2023/08/30 03:04:14;;;;;;;19.37;13.60;;;12.20;99.90;;;;;;5029808;28;20551;-64
2023/08/30 03:06:43;;;;;;;19.87;14.50;;;12.10;99.90;;;;;;5030077;28;20821;-66
2023/08/30 03:09:11;;;;;;;20.73;14.10;;;12.20;99.90;;;;;;5029984;28;20466;-66
2023/08/30 03:11:39;;;;;;;20.53;14.47;;;12.10;99.90;;;;;;5030407;28;20507;-65
2023/08/30 03:14:07;;;;;;;22.60;16.00;;;12.20;99.90;;;;;;5030006;28;20861;-66
2023/08/30 03:16:35;;;;;;;23.37;16.30;;;12.20;99.90;;;;;;5029842;28;20520;-66
2023/08/30 03:19:03;;;;;;;21.83;15.70;;;12.30;99.90;;;;;;5030225;28;20532;-66
2023/08/30 03:21:31;;;;;;;22.80;15.90;;;12.40;99.90;;;;;;5047383;28;20553;-65
2023/08/30 03:24:00;;;;;;;25.97;16.40;;;12.50;99.90;;;;;;5049881;28;20536;-66
2023/08/30 03:26:28;;;;;;;23.63;15.40;;;12.50;99.90;;;;;;5049761;28;20497;-66
2023/08/30 03:28:56;;;;;;;33.33;17.57;;;12.50;99.90;;;;;;5050103;28;20527;-65
2023/08/30 03:31:25;;;;;;;20.13;14.07;;;12.50;99.90;;;;;;5049506;28;20448;-67
2023/08/30 03:33:53;;;;;;;19.83;14.67;;;12.50;99.90;;;;;;5049645;28;20445;-66
2023/08/30 03:36:21;;;;;;;23.20;16.43;;;12.40;99.90;;;;;;5049476;28;20476;-66
2023/08/30 03:38:48;;;;;;;21.37;15.63;;;12.40;99.90;;;;;;5049842;28;20825;-66
2023/08/30 03:41:19;;;;;;;23.87;15.47;;;12.50;99.90;;;;;;5049831;28;20513;-66
2023/08/30 03:43:47;;;;;;;20.70;15.63;;;12.50;99.90;;;;;;5049043;28;20971;-66
2023/08/30 03:46:15;;;;;;;22.60;14.13;;;12.50;99.90;;;;;;5049596;28;20444;-66
2023/08/30 03:48:43;;;;;;;22.07;15.37;;;12.50;99.90;;;;;;5049209;28;20440;-66
2023/08/30 03:51:11;;;;;;;22.10;16.47;;;12.50;99.90;;;;;;5049741;28;20445;-66
2023/08/30 03:53:39;;;;;;;21.97;16.00;;;12.60;99.90;;;;;;5049114;28;20976;-66
2023/08/30 03:56:07;;;;;;;21.70;14.90;;;12.50;99.90;;;;;;5049509;28;20535;-67
2023/08/30 03:58:37;;;;;;;19.50;14.53;;;12.60;99.90;;;;;;5049296;28;20537;-64
2023/08/30 04:01:06;;;;;;;23.47;14.43;;;12.60;99.90;;;;;;5049318;28;20556;-63
2023/08/30 04:03:34;;;;;;;22.20;16.37;;;12.60;99.90;;;;;;5049396;28;20501;-66
2023/08/30 04:06:02;;;;;;;25.33;18.00;;;12.50;99.90;;;;;;5049313;28;20442;-67
2023/08/30 04:08:31;;;;;;;24.00;17.50;;;12.40;99.90;;;;;;5049577;28;20515;-66
2023/08/30 04:10:59;;;;;;;24.40;16.87;;;12.60;99.90;;;;;;5049264;28;20440;-66
2023/08/30 04:13:27;;;;;;;26.83;17.57;;;12.50;99.90;;;;;;5049163;28;20466;-66
2023/08/30 04:15:58;;;;;;;23.20;16.20;;;12.40;99.90;;;;;;5048941;28;20442;-66
2023/08/30 04:18:26;;;;;;;26.00;18.27;;;12.50;99.90;;;;;;5049298;28;20473;-66
2023/08/30 04:20:54;;;;;;;25.43;16.20;;;12.40;99.90;;;;;;5049092;28;20474;-67
2023/08/30 04:23:22;;;;;;;22.27;16.13;;;12.40;99.90;;;;;;5049112;28;20823;-66
2023/08/30 04:25:50;;;;;;;29.27;17.07;;;12.20;99.90;;;;;;5049076;28;20444;-67
2023/08/30 04:28:18;;;;;;;22.87;16.60;;;12.20;99.90;;;;;;5048930;28;20556;-66
2023/08/30 04:30:46;;;;;;;22.20;16.00;;;12.30;99.90;;;;;;5049536;28;20462;-67
2023/08/30 04:33:15;;;;;;;24.90;16.47;;;12.30;99.90;;;;;;5048765;28;20493;-66
2023/08/30 04:35:43;;;;;;;25.50;19.07;;;12.30;99.90;;;;;;5049263;28;20435;-66
2023/08/30 04:38:11;;;;;;;27.80;16.60;;;12.30;99.90;;;;;;5048814;28;20974;-66
2023/08/30 04:40:39;;;;;;;24.00;16.20;;;12.40;99.90;;;;;;5048995;28;20485;-66
2023/08/30 04:43:07;;;;;;;21.40;15.27;;;12.60;99.90;;;;;;5048391;28;20543;-67
2023/08/30 04:45:35;;;;;;;23.47;15.93;;;12.70;99.90;;;;;;5049171;28;20521;-66
2023/08/30 04:48:04;;;;;;;23.40;15.03;;;12.70;99.90;;;;;;5049264;28;20547;-66
2023/08/30 04:50:33;;;;;;;19.73;14.33;;;12.80;99.90;;;;;;5053068;28;20541;-66
2023/08/30 04:53:02;;;;;;;20.17;15.10;;;12.80;99.90;;;;;;5052507;28;20812;-66
2023/08/30 04:55:30;;;;;;;22.80;14.67;;;12.90;99.90;;;;;;5052604;28;20436;-66
2023/08/30 04:57:58;;;;;;;21.60;14.67;;;12.90;99.90;;;;;;5052762;28;20468;-66
2023/08/30 05:00:26;;;;;;;21.43;14.77;;;13.00;99.90;;;;;;5052472;28;20482;-67
2023/08/30 05:02:54;;;;;;;20.77;15.80;;;13.00;99.90;;;;;;5052190;28;20440;-67
2023/08/30 05:05:22;;;;;;;19.83;14.60;;;13.10;99.90;;;;;;5052308;28;20820;-66
2023/08/30 05:07:52;;;;;;;19.93;14.63;;;13.10;99.90;;;;;;5052624;28;20464;-67
2023/08/30 05:10:20;;;;;;;21.97;14.90;;;13.00;99.90;;;;;;5052167;28;20525;-66
2023/08/30 05:12:51;;;;;;;20.33;14.37;;;12.90;99.90;;;;;;5052373;28;20447;-66
2023/08/30 05:15:20;;;;;;;21.47;14.77;;;13.00;99.90;;;;;;5052135;28;20444;-66
2023/08/30 05:17:48;;;;;;;20.20;13.90;;;13.10;99.90;;;;;;5052284;28;20471;-66
2023/08/30 05:20:16;;;;;;;20.17;13.40;;;13.10;99.90;;;;;;5052167;28;20881;-66
2023/08/30 05:22:44;;;;;;;29.87;15.93;;;13.10;99.90;;;;;;5052811;28;20451;-66
2023/08/30 05:25:13;;;;;;;19.80;15.30;;;13.20;99.90;;;;;;5052602;28;20497;-67
2023/08/30 05:27:41;;;;;;;24.57;16.67;;;13.20;99.90;;;;;;5052012;28;21244;-65
2023/08/30 05:30:10;;;;;;;19.57;14.20;;;13.40;99.90;;;;;;5052065;28;20448;-66
2023/08/30 05:32:38;;;;;;;18.67;13.97;;;13.40;99.90;;;;;;5051414;28;20476;-67
2023/08/30 05:35:07;;;;;;;18.83;14.33;;;13.50;99.90;;;;;;5051869;28;20538;-67
2023/08/30 05:37:35;;;;;;;19.50;14.70;;;13.60;99.90;;;;;;5051418;28;20521;-66
2023/08/30 05:40:03;;;;;;;18.30;13.00;;;13.60;99.90;;;;;;5051979;28;20448;-66
2023/08/30 05:42:33;;;;;;;18.23;14.37;;;13.60;99.90;;;;;;5051310;28;20922;-66
2023/08/30 05:45:01;;;;;;;22.73;14.87;;;13.70;99.90;;;;;;5051436;28;20864;-66
2023/08/30 05:47:28;;;;;;;18.00;13.40;;;13.80;99.90;;;;;;5051503;28;20456;-67
2023/08/30 05:49:56;;;;;;;18.73;14.00;;;13.80;99.90;;;;;;5051609;28;20464;-67
2023/08/30 05:52:25;;;;;;;17.90;13.37;;;13.80;99.90;;;;;;5051575;28;20821;-66
2023/08/30 05:54:53;;;;;;;19.13;14.40;;;13.90;99.90;;;;;;5051371;28;20490;-67
2023/08/30 05:57:22;;;;;;;17.07;12.43;;;13.90;99.90;;;;;;5051601;28;20467;-66
2023/08/30 05:59:51;;;;;;;17.73;13.20;;;14.00;99.90;;;;;;5050096;28;20494;-65
2023/08/30 06:02:19;;;;;;;17.27;12.87;;;14.00;99.90;;;;;;5051324;28;20489;-67
2023/08/30 06:04:47;;;;;;;18.53;13.20;;;14.00;99.90;;;;;;5051319;28;20863;-66
2023/08/30 06:07:15;;;;;;;17.77;13.80;;;14.00;99.90;;;;;;5051504;28;20970;-65
2023/08/30 06:09:43;;;;;;;17.37;13.83;;;14.00;99.90;;;;;;5051397;28;20469;-67
2023/08/30 06:12:11;;;;;;;17.80;13.80;;;14.10;99.90;;;;;;5051599;28;20437;-68
2023/08/30 06:14:39;;;;;;;17.07;12.50;;;14.20;99.90;;;;;;5050864;28;20459;-67
2023/08/30 06:17:08;;;;;;;19.23;13.07;;;14.20;99.90;;;;;;5050871;28;20469;-68
2023/08/30 06:19:36;;;;;;;17.17;11.47;;;14.30;99.90;;;;;;5051413;28;20446;-68
2023/08/30 06:22:04;;;;;;;16.63;13.03;;;14.30;99.90;;;;;;5050670;28;20524;-67
2023/08/30 06:24:32;;;;;;;16.80;12.60;;;14.40;99.90;;;;;;5050872;28;20447;-67
2023/08/30 06:27:00;;;;;;;18.87;12.63;;;14.50;99.90;;;;;;5050622;28;20833;-67
2023/08/30 06:29:28;;;;;;;15.90;10.47;;;14.60;99.90;;;;;;5051315;28;20580;-67
2023/08/30 06:31:56;;;;;;;19.00;12.03;;;14.80;99.90;;;;;;5050647;28;20446;-68
2023/08/30 06:34:26;;;;;;;15.73;11.80;;;14.80;99.90;;;;;;5050655;28;20477;-66
2023/08/30 06:36:53;;;;;;;18.80;13.10;;;14.80;99.90;;;;;;5049840;28;21042;-67
2023/08/30 06:39:22;;;;;;;16.77;11.60;;;14.90;99.90;;;;;;5050861;28;20452;-67
2023/08/30 06:41:50;;;;;;;17.80;10.80;;;15.10;99.90;;;;;;5050862;28;20510;-67
2023/08/30 06:44:18;;;;;;;16.70;12.63;;;15.10;99.90;;;;;;5050095;28;20491;-67
2023/08/30 06:46:46;;;;;;;14.03;10.70;;;15.20;99.90;;;;;;5050788;28;20460;-68
2023/08/30 06:49:14;;;;;;;16.63;11.00;;;15.20;99.90;;;;;;5050389;28;20450;-66
2023/08/30 06:51:43;;;;;;;15.77;10.27;;;15.40;99.90;;;;;;5051005;28;20452;-66
2023/08/30 06:54:11;;;;;;;16.30;12.20;;;15.50;99.90;;;;;;5050005;28;20896;-66
2023/08/30 06:56:39;;;;;;;15.00;9.43;;;15.60;99.90;;;;;;5050600;28;20532;-65
2023/08/30 06:59:07;;;;;;;17.17;10.17;;;15.60;99.90;;;;;;5050330;28;20447;-65
2023/08/30 07:01:35;;;;;;;13.67;9.47;;;15.70;99.90;;;;;;5050065;28;20873;-65
2023/08/30 07:04:04;;;;;;;14.03;9.43;;;15.70;99.90;;;;;;5049832;28;20552;-65
2023/08/30 07:06:32;;;;;;;14.50;9.23;;;15.80;99.90;;;;;;5049899;28;20893;-66
2023/08/30 07:09:03;;;;;;;18.17;10.87;;;15.80;99.90;;;;;;5050291;28;20454;-66
2023/08/30 07:11:31;;;;;;;14.40;8.90;;;16.00;99.90;;;;;;5049773;28;20970;-65
2023/08/30 07:14:01;;;;;;;13.40;10.17;;;16.10;99.90;;;;;;5050126;28;20859;-65
2023/08/30 07:16:31;;;;;;;15.60;10.90;;;16.10;99.90;;;;;;5049729;28;20496;-65
2023/08/30 07:19:01;;;;;;;13.37;9.10;;;16.10;99.90;;;;;;5050085;28;20443;-64
2023/08/30 07:21:29;;;;;;;14.00;9.87;;;16.10;99.90;;;;;;5049605;28;20942;-66
2023/08/30 07:23:57;;;;;;;15.37;10.00;;;16.10;99.90;;;;;;5049512;28;20934;-64
2023/08/30 07:26:27;;;;;;;14.50;9.90;;;16.10;99.90;;;;;;5049543;28;20452;-66
2023/08/30 07:28:55;;;;;;;13.00;8.70;;;16.20;99.90;;;;;;5049284;28;20470;-67
2023/08/30 07:31:23;;;;;;;13.67;8.50;;;16.30;99.90;;;;;;5049997;28;20635;-67
2023/08/30 07:33:51;;;;;;;13.53;8.13;;;16.20;99.90;;;;;;5049056;28;20448;-66
2023/08/30 07:36:19;;;;;;;13.20;8.27;;;16.30;99.90;;;;;;5049807;28;20470;-66
2023/08/30 07:38:52;;;;;;;13.57;7.70;;;16.50;99.90;;;;;;5049777;28;20445;-66
2023/08/30 07:41:20;;;;;;;11.27;7.57;;;16.50;99.90;;;;;;5049701;28;20576;-67
2023/08/30 07:43:50;;;;;;;14.03;8.10;;;16.50;99.90;;;;;;5049165;28;20565;-66
2023/08/30 07:46:18;;;;;;;12.00;7.50;;;16.50;99.90;;;;;;5049858;28;20448;-67
2023/08/30 07:48:46;;;;;;;12.23;7.47;;;16.60;99.90;;;;;;5049650;28;21162;-67
2023/08/30 07:51:14;;;;;;;15.90;7.70;;;16.70;99.90;;;;;;5049722;28;20802;-67
2023/08/30 07:53:42;;;;;;;11.53;7.37;;;16.70;99.90;;;;;;5049343;28;20444;-67
2023/08/30 07:56:09;;;;;;;12.07;7.50;;;16.90;99.90;;;;;;5049632;28;20448;-67
2023/08/30 07:58:37;;;;;;;11.40;7.07;;;16.90;99.90;;;;;;5049667;28;20527;-68
2023/08/30 08:01:07;;;;;;;11.10;7.13;;;17.00;99.90;;;;;;5049190;28;20431;-67
2023/08/30 08:03:34;;;;;;;12.13;7.97;;;17.00;99.90;;;;;;5049016;28;20217;-67
2023/08/30 08:06:03;;;;;;;13.57;7.43;;;17.20;99.90;;;;;;5049179;28;20498;-68
2023/08/30 08:08:31;;;;;;;13.60;8.10;;;17.30;99.90;;;;;;5049081;28;20521;-68
2023/08/30 08:11:00;;;;;;;14.80;8.53;;;17.30;99.90;;;;;;5049441;28;20443;-67
2023/08/30 08:13:28;;;;;;;13.27;8.80;;;17.40;99.90;;;;;;5049194;28;20845;-67
2023/08/30 08:15:57;;;;;;;13.47;9.00;;;17.50;99.90;;;;;;5049299;28;20470;-70
2023/08/30 08:18:27;;;;;;;12.13;7.73;;;17.60;99.90;;;;;;5049395;28;21038;-69
2023/08/30 08:20:55;;;;;;;11.70;7.70;;;17.70;99.90;;;;;;5049368;28;20487;-67
2023/08/30 08:23:23;;;;;;;12.73;8.10;;;17.80;99.90;;;;;;5049989;28;20511;-67
2023/08/30 08:25:57;;;;;;;12.67;7.07;;;17.70;99.90;;;;;;5053342;28;20531;-67
2023/08/30 08:28:25;;;;;;;11.10;6.93;;;17.80;99.90;;;;;;5053008;28;20474;-67
2023/08/30 08:30:53;;;;;;;10.43;6.17;;;17.90;99.90;;;;;;5053396;28;20440;-67
2023/08/30 08:33:22;;;;;;;10.23;6.10;;;17.90;99.90;;;;;;5052741;28;20493;-71
2023/08/30 08:35:52;;;;;;;12.13;6.97;;;18.00;99.90;;;;;;5053208;28;20514;-68
2023/08/30 08:38:20;;;;;;;10.73;6.43;;;18.00;99.90;;;;;;5053106;28;20468;-66
2023/08/30 08:40:50;;;;;;;12.33;6.17;;;18.00;99.90;;;;;;5053068;28;20874;-67
2023/08/30 08:43:20;;;;;;;9.33;5.23;;;18.30;99.90;;;;;;5052531;28;20486;-67
2023/08/30 08:45:48;;;;;;;9.80;5.90;;;18.30;99.90;;;;;;5052898;28;20539;-67
2023/08/30 08:48:16;;;;;;;11.27;5.60;;;18.30;99.90;;;;;;5048941;28;20507;-67
2023/08/30 08:50:46;;;;;;;10.70;5.17;;;18.30;99.90;;;;;;5048437;28;20448;-68
2023/08/30 08:53:15;;;;;;;10.00;5.50;;;18.10;99.90;;;;;;5049423;28;20432;-67
2023/08/30 08:55:45;;;;;;;9.70;5.60;;;18.10;99.90;;;;;;5052523;28;20444;-67
2023/08/30 08:58:15;;;;;;;9.37;4.80;;;18.30;99.90;;;;;;5052637;28;20956;-68
2023/08/30 09:00:43;;;;;;;10.23;5.00;;;18.40;99.90;;;;;;5052616;28;21016;-66
2023/08/30 09:03:11;;;;;;;9.37;4.50;;;18.50;99.90;;;;;;5052290;28;20480;-68
2023/08/30 09:05:46;;;;;;;9.20;3.93;;;18.60;99.90;;;;;;5052722;28;20824;-67
2023/08/30 09:08:17;;;;;;;9.23;4.80;;;18.60;99.90;;;;;;5052546;28;20547;-68
2023/08/30 09:10:45;;;;;;;8.93;4.97;;;18.80;99.90;;;;;;5052502;28;20451;-66
2023/08/30 09:13:13;;;;;;;8.97;4.30;;;18.90;99.90;;;;;;5052022;28;20446;-67
2023/08/30 09:15:41;;;;;;;10.93;4.63;;;19.00;99.90;;;;;;5052659;28;20467;-67
2023/08/30 09:18:16;;;;;;;8.30;4.27;;;19.10;99.90;;;;;;5051982;28;20468;-68
2023/08/30 09:20:44;;;;;;;10.97;4.70;;;19.30;99.90;;;;;;5052435;28;20435;-67
2023/08/30 09:23:20;;;;;;;8.20;3.90;;;19.50;99.90;;;;;;5051872;28;20476;-67
2023/08/30 09:25:54;;;;;;;9.50;4.17;;;19.90;99.90;;;;;;5048076;28;20452;-68
2023/08/30 09:28:22;;;;;;;9.80;4.00;;;20.30;99.90;;;;;;5045795;28;20462;-67
2023/08/30 09:30:51;;;;;;;8.43;4.13;;;20.60;99.90;;;;;;5052116;28;20436;-68
2023/08/30 09:33:22;;;;;;;8.70;3.90;;;21.00;99.90;;;;;;5048668;28;20436;-67
2023/08/30 09:35:49;;;;;;;9.40;3.90;;;21.50;99.90;;;;;;5051780;28;20515;-68
2023/08/30 09:38:20;;;;;;;9.70;3.37;;;21.90;99.90;;;;;;5046396;28;20462;-68
2023/08/30 09:40:48;;;;;;;8.60;4.10;;;22.00;99.90;;;;;;5052541;28;20432;-67
2023/08/30 09:43:21;;;;;;;7.90;3.20;;;21.90;99.90;;;;;;5051942;28;20476;-68
2023/08/30 09:45:49;;;;;;;8.80;3.50;;;22.00;99.90;;;;;;5052100;28;20444;-68
2023/08/30 09:48:21;;;;;;;8.80;3.60;;;22.00;99.90;;;;;;5051764;28;20468;-67
2023/08/30 09:50:53;;;;;;;7.87;3.90;;;22.10;99.90;;;;;;5051540;28;20560;-67
2023/08/30 09:53:26;;;;;;;9.33;3.20;;;22.20;99.90;;;;;;5051704;28;20433;-68
2023/08/30 09:55:55;;;;;;;7.97;2.90;;;22.30;99.90;;;;;;5051408;28;20962;-68
2023/08/30 09:58:23;;;;;;;7.93;2.87;;;22.10;99.90;;;;;;5042875;28;20452;-68
2023/08/30 10:00:52;;;;;;;7.60;2.90;;;22.20;99.90;;;;;;5050142;28;20833;-65
2023/08/30 10:03:20;;;;;;;9.27;4.00;;;22.50;99.90;;;;;;5051271;28;20567;-65
2023/08/30 10:06:00;;;;;;;8.93;3.37;;;22.80;99.90;;;;;;5051620;28;20444;-65
2023/08/30 10:08:31;;;;;;;7.23;2.83;;;23.20;99.90;;;;;;5048352;28;20472;-66
2023/08/30 10:10:59;;;;;;;9.27;2.87;;;23.60;99.90;;;;;;5051382;28;20444;-65
2023/08/30 10:13:27;;;;;;;7.60;2.80;;;23.70;99.90;;;;;;5050842;28;20509;-67
2023/08/30 10:16:03;;;;;;;7.77;2.93;;;23.80;99.90;;;;;;5051667;28;20444;-65
2023/08/30 10:18:34;;;;;;;8.30;2.97;;;23.90;99.90;;;;;;5051173;28;20478;-67
2023/08/30 10:21:06;;;;;;;7.70;2.80;;;24.00;99.90;;;;;;5051624;28;20447;-66
2023/08/30 10:23:37;;;;;;;8.63;3.07;;;24.10;99.90;;;;;;5050870;28;20507;-68
2023/08/30 10:26:07;;;;;;;7.57;2.77;;;23.90;99.90;;;;;;5050989;28;20501;-67
2023/08/30 10:28:37;;;;;;;7.50;2.37;;;23.90;99.90;;;;;;5050382;28;20552;-68
2023/08/30 10:31:05;;;;;;;8.70;3.77;;;23.50;99.90;;;;;;5050506;28;20867;-67
2023/08/30 10:33:33;;;;;;;8.20;2.80;;;23.60;99.90;;;;;;5040985;28;20447;-67
2023/08/30 10:36:06;;;;;;;7.80;2.80;;;23.80;99.90;;;;;;5030277;28;20503;-68
2023/08/30 10:38:39;;;;;;;8.13;2.80;;;24.10;99.90;;;;;;5030714;28;20456;-67
2023/08/30 10:41:07;;;;;;;8.17;2.40;;;24.20;99.90;;;;;;5030895;28;20507;-68
2023/08/30 10:43:37;;;;;;;8.07;3.10;;;24.50;99.90;;;;;;5030816;28;20481;-68
2023/08/30 10:46:07;;;;;;;7.77;2.70;;;24.70;97.60;;;;;;5030457;28;20449;-67
2023/08/30 10:48:36;;;;;;;7.67;2.27;;;24.50;98.80;;;;;;5031015;28;20499;-68
2023/08/30 10:51:07;;;;;;;17.43;4.07;;;24.30;99.90;;;;;;5030652;28;20456;-68
2023/08/30 10:53:36;;;;;;;7.67;2.57;;;24.70;99.90;;;;;;5030695;28;20449;-68
2023/08/30 10:56:09;;;;;;;8.00;2.70;;;25.00;98.80;;;;;;5030863;28;20918;-68
2023/08/30 10:58:41;;;;;;;7.50;2.50;;;25.40;98.70;;;;;;5030649;28;20518;-68
2023/08/30 11:01:12;;;;;;;7.70;2.10;;;25.60;96.70;;;;;;5030776;28;20511;-67
2023/08/30 11:03:42;;;;;;;7.00;1.90;;;25.30;98.60;;;;;;5030400;28;20802;-68
2023/08/30 11:06:14;;;;;;;8.50;2.47;;;24.70;97.80;;;;;;5030820;28;20849;-66
2023/08/30 11:08:44;;;;;;;8.00;2.17;;;24.20;96.80;;;;;;5030477;28;20485;-67
2023/08/30 11:11:14;;;;;;;7.93;2.10;;;23.70;99.10;;;;;;5029814;28;20447;-67
2023/08/30 11:13:42;;;;;;;9.30;2.63;;;23.50;97.30;;;;;;5029384;28;20444;-66
2023/08/30 11:16:11;;;;;;;7.50;2.53;;;23.50;95.10;;;;;;5029400;28;20939;-66
2023/08/30 11:18:41;;;;;;;6.80;1.87;;;22.90;95.30;;;;;;5029491;28;20437;-67
2023/08/30 11:21:11;;;;;;;7.50;2.70;;;22.80;95.30;;;;;;5029304;28;20543;-65
2023/08/30 11:23:39;;;;;;;7.90;2.60;;;22.60;95.70;;;;;;5029243;28;20540;-67
2023/08/30 11:26:09;;;;;;;8.07;2.53;;;22.80;95.80;;;;;;5029448;28;20536;-67
2023/08/30 11:28:41;;;;;;;8.00;2.47;;;22.80;97.90;;;;;;5029620;28;20461;-66
2023/08/30 11:31:09;;;;;;;7.77;2.90;;;22.40;95.10;;;;;;5029479;28;20464;-67
2023/08/30 11:33:37;;;;;;;7.83;2.43;;;22.10;95.00;;;;;;5029172;28;20441;-67
2023/08/30 11:36:05;;;;;;;7.20;2.60;;;21.80;96.80;;;;;;5029301;28;20441;-67
2023/08/30 11:38:34;;;;;;;7.17;2.13;;;21.40;97.30;;;;;;5029541;28;20463;-67
2023/08/30 11:41:04;;;;;;;7.70;2.20;;;21.30;98.50;;;;;;5029349;28;20499;-66
2023/08/30 11:43:33;;;;;;;7.33;2.83;;;20.90;99.90;;;;;;5029140;28;20491;-67
2023/08/30 11:46:04;;;;;;;11.80;3.90;;;20.70;99.20;;;;;;5029446;28;20479;-66
2023/08/30 11:48:32;;;;;;;8.63;2.80;;;20.30;99.90;;;;;;5029175;28;20468;-67
2023/08/30 11:51:01;;;;;;;8.60;2.40;;;20.10;99.90;;;;;;5029174;28;20993;-67
2023/08/30 11:53:29;;;;;;;8.87;3.10;;;19.80;99.90;;;;;;5028698;28;20445;-66
2023/08/30 11:55:57;;;;;;;8.50;3.13;;;19.40;99.90;;;;;;5029297;28;20959;-67
2023/08/30 11:58:25;;;;;;;8.50;4.07;;;19.00;99.90;;;;;;5027731;28;20496;-66
2023/08/30 12:00:55;;;;;;;8.70;4.20;;;18.50;99.90;;;;;;5029084;28;20923;-66
2023/08/30 12:03:23;;;;;;;8.90;4.23;;;18.00;99.90;;;;;;5028474;28;20447;-66
2023/08/30 12:05:52;;;;;;;10.17;4.70;;;17.30;99.90;;;;;;5028779;28;20911;-66
2023/08/30 12:08:20;;;;;;;9.60;4.80;;;16.80;99.90;;;;;;4992365;28;1061049;-66
2023/08/30 12:10:48;;;;;;;9.90;5.10;;;16.40;99.90;;;;;;5029571;28;20446;-66
2023/08/30 12:13:26;;;;;;;10.50;6.23;;;16.20;99.90;;;;;;5029353;28;20537;-66
2023/08/30 12:15:56;;;;;;;10.67;5.93;;;16.00;99.90;;;;;;5029662;28;20537;-66
2023/08/30 12:18:27;;;;;;;13.43;6.80;;;15.90;99.90;;;;;;5029447;28;20474;-66
2023/08/30 12:20:59;;;;;;;12.03;7.37;;;15.90;99.90;;;;;;5029887;28;20543;-66
2023/08/30 12:23:28;;;;;;;10.67;6.80;;;15.90;99.90;;;;;;5029249;28;20826;-65
2023/08/30 12:26:01;;;;;;;11.40;7.33;;;16.00;99.90;;;;;;5029506;28;20552;-65
2023/08/30 12:28:29;;;;;;;11.00;7.00;;;16.20;99.90;;;;;;5029299;28;20472;-66
2023/08/30 12:30:59;;;;;;;11.50;7.07;;;16.30;99.90;;;;;;5029382;28;20449;-66
2023/08/30 12:33:29;;;;;;;12.13;8.33;;;16.40;99.90;;;;;;5029238;28;20881;-66
2023/08/30 12:35:58;;;;;;;12.90;6.80;;;16.40;99.90;;;;;;5029826;28;20507;-65
2023/08/30 12:38:26;;;;;;;11.17;6.83;;;16.60;99.90;;;;;;5029286;28;20466;-66
2023/08/30 12:40:55;;;;;;;11.73;7.77;;;16.80;99.90;;;;;;5029381;28;20449;-66
2023/08/30 12:43:24;;;;;;;11.80;6.20;;;16.90;99.90;;;;;;5028854;28;20451;-66